Time;durP1;ratioP1;P1;durP2;ratioP2;P2;SDS_P1;SDS_P2;PMS_P1;PMS_P2;Temp;Humidity;BMP_temperature;BMP_pressure;BME280_temperature;BME280_humidity;BME280_pressure;Samples;Min_cycle;Max_cycle;Signal;HPM_P1;HPM_P2
2021/01/31 00:03:17;;;;;;;1.20;0.93;;;;;;;-0.30;100.00;97705.63;3893023;75;392945;-75
2021/01/31 00:08:38;;;;;;;4.60;3.63;;;;;;;-0.24;100.00;97700.89;3894934;74;396402;-75
2021/01/31 00:13:59;;;;;;;2.70;1.40;;;;;;;-0.23;100.00;97711.14;3893060;75;395021;-75
2021/01/31 00:19:20;;;;;;;3.50;1.60;;;;;;;-0.28;100.00;97705.48;3892561;74;396108;-75
2021/01/31 00:24:41;;;;;;;0.90;0.67;;;;;;;-0.31;100.00;97701.37;3894023;75;387700;-75
2021/01/31 00:30:08;;;;;;;1.77;1.23;;;;;;;-0.35;100.00;97701.31;3893520;74;383569;-75
2021/01/31 00:35:33;;;;;;;1.13;1.03;;;;;;;-0.33;100.00;97707.70;3895098;75;393987;-75
2021/01/31 00:40:53;;;;;;;1.00;0.90;;;;;;;-0.37;100.00;97711.69;3895815;74;392934;-75
2021/01/31 00:46:15;;;;;;;15.70;2.13;;;;;;;-0.38;100.00;97708.78;3907396;74;391106;-75
2021/01/31 00:51:36;;;;;;;5.73;2.37;;;;;;;-0.33;100.00;97711.75;3933068;74;383580;-75
2021/01/31 00:56:57;;;;;;;2.77;2.43;;;;;;;-0.35;100.00;97709.97;3932204;74;391898;-75
2021/01/31 01:02:21;;;;;;;1.13;1.03;;;;;;;-0.46;100.00;97708.45;3933210;74;391942;-75
2021/01/31 01:07:43;;;;;;;3.20;3.00;;;;;;;-0.45;100.00;97707.31;3932219;74;391895;-75
2021/01/31 01:13:05;;;;;;;6.57;4.20;;;;;;;-0.50;100.00;97707.63;3932310;74;396025;-75
2021/01/31 01:18:26;;;;;;;0.90;0.63;;;;;;;-0.46;100.00;97709.03;3933370;74;389845;-75
2021/01/31 01:23:47;;;;;;;0.80;0.60;;;;;;;-0.51;100.00;97709.31;3933342;74;387703;-75
2021/01/31 01:29:09;;;;;;;1.50;1.40;;;;;;;-0.46;100.00;97710.39;3932940;74;392183;-74
2021/01/31 01:34:30;;;;;;;16.40;2.90;;;;;;;-0.48;100.00;97699.92;3932743;74;383572;-75
2021/01/31 01:39:51;;;;;;;1.10;1.00;;;;;;;-0.53;100.00;97718.38;3933382;74;383836;-75
2021/01/31 01:45:13;;;;;;;2.60;2.40;;;;;;;-0.56;100.00;97717.73;3930502;74;393994;-75
2021/01/31 01:50:39;;;;;;;4.63;2.37;;;;;;;-0.52;100.00;97717.20;3892253;74;396369;-75
2021/01/31 01:56:12;;;;;;;0.80;0.60;;;;;;;-0.52;100.00;97720.70;3895674;75;383806;-75
2021/01/31 02:01:34;;;;;;;2.40;2.20;;;;;;;-0.50;100.00;97716.28;3894557;75;393958;-75
2021/01/31 02:06:55;;;;;;;1.67;1.57;;;;;;;-0.45;100.00;97721.41;3892756;75;395063;-75
2021/01/31 02:12:19;;;;;;;1.87;1.67;;;;;;;-0.51;100.00;97720.13;3892810;74;391868;-75
2021/01/31 02:17:43;;;;;;;1.63;1.07;;;;;;;-0.38;100.00;97716.88;3894213;74;396144;-75
2021/01/31 02:23:30;;;;;;;2.63;2.43;;;;;;;-0.40;100.00;97711.64;3893221;75;394247;-75
2021/01/31 02:29:12;;;;;;;4.10;2.80;;;;;;;-0.38;100.00;97714.18;3870548;74;396070;-74
2021/01/31 02:34:42;;;;;;;4.30;2.30;;;;;;;-0.44;100.00;97733.19;3894926;75;383814;-75
2021/01/31 02:40:15;;;;;;;3.50;1.83;;;;;;;-0.45;100.00;97724.88;3892967;75;391852;-75
2021/01/31 02:45:40;;;;;;;1.40;1.30;;;;;;;-0.52;100.00;97735.55;3892987;75;396073;-75
2021/01/31 02:51:16;;;;;;;3.40;2.23;;;;;;;-0.51;100.00;97732.27;3893467;74;396326;-75
2021/01/31 02:56:42;;;;;;;2.00;0.90;;;;;;;-0.56;100.00;97726.59;3895369;75;395039;-74
2021/01/31 03:02:06;;;;;;;1.00;0.80;;;;;;;-0.56;100.00;97738.75;3894648;75;392128;-75
2021/01/31 03:07:48;;;;;;;0.90;0.80;;;;;;;-0.51;100.00;97741.17;3895915;75;391926;-75
2021/01/31 03:13:12;;;;;;;1.33;1.23;;;;;;;-0.57;100.00;97737.22;3894307;75;394040;-75
2021/01/31 03:18:39;;;;;;;1.27;1.00;;;;;;;-0.63;100.00;97738.63;3895416;75;394067;-75
2021/01/31 03:24:03;;;;;;;1.03;0.93;;;;;;;-0.64;100.00;97746.52;3895393;75;391885;-75
2021/01/31 03:29:25;;;;;;;1.10;1.00;;;;;;;-0.68;100.00;97749.73;3895823;74;383577;-75
2021/01/31 03:34:50;;;;;;;16.27;3.30;;;;;;;-0.65;100.00;97755.75;3892671;75;396111;-75
2021/01/31 03:40:13;;;;;;;3.63;2.70;;;;;;;-0.70;100.00;97749.31;3894621;74;396077;-75
2021/01/31 03:45:37;;;;;;;2.70;0.77;;;;;;;-0.72;100.00;97762.95;3893690;75;383542;-75
2021/01/31 03:50:58;;;;;;;1.10;0.87;;;;;;;-0.67;100.00;97770.20;3894512;74;391857;-75
2021/01/31 03:56:28;;;;;;;1.10;0.90;;;;;;;-0.76;100.00;97769.64;3893746;75;383841;-74
2021/01/31 04:01:52;;;;;;;1.60;1.50;;;;;;;-0.82;100.00;97772.98;3893499;75;392964;-75
2021/01/31 04:07:16;;;;;;;1.37;1.27;;;;;;;-0.76;100.00;97774.24;3893365;75;385664;-74
2021/01/31 04:12:40;;;;;;;1.73;1.63;;;;;;;-0.77;100.00;97784.27;3895167;75;389801;-75
2021/01/31 04:18:01;;;;;;;1.23;1.13;;;;;;;-0.79;100.00;97786.55;3894444;75;383576;-75
2021/01/31 04:23:23;;;;;;;2.10;2.00;;;;;;;-0.82;100.00;97783.78;3893241;74;392912;-74
2021/01/31 04:28:44;;;;;;;1.30;0.70;;;;;;;-0.81;100.00;97785.92;3893746;74;389852;-75
2021/01/31 04:34:05;;;;;;;0.90;0.80;;;;;;;-0.82;100.00;97785.70;3893692;75;391927;-74
2021/01/31 04:39:26;;;;;;;0.90;0.70;;;;;;;-0.87;100.00;97790.02;3894284;74;383801;-75
2021/01/31 04:44:51;;;;;;;8.23;2.60;;;;;;;-0.90;100.00;97782.66;3893267;74;383577;-74
2021/01/31 04:50:16;;;;;;;1.80;1.70;;;;;;;-0.87;100.00;97786.78;3892576;74;396380;-75
2021/01/31 04:55:49;;;;;;;2.70;2.60;;;;;;;-0.97;100.00;97790.63;3894971;75;392968;-74
2021/01/31 05:01:19;;;;;;;4.07;3.00;;;;;;;-0.95;100.00;97795.08;3894789;75;396034;-75
2021/01/31 05:06:48;;;;;;;1.77;1.67;;;;;;;-0.91;100.00;97798.64;3893949;75;383573;-75
2021/01/31 05:12:33;;;;;;;14.60;2.73;;;;;;;-0.91;100.00;97803.45;3893147;75;394022;-75
2021/01/31 05:17:57;;;;;;;5.33;1.10;;;;;;;-0.90;100.00;97808.30;3894983;75;395027;-75
2021/01/31 05:23:19;;;;;;;1.60;1.50;;;;;;;-0.98;100.00;97811.41;3892603;75;396064;-74
2021/01/31 05:28:44;;;;;;;1.30;1.13;;;;;;;-0.95;100.00;97819.36;3892831;74;393995;-74
2021/01/31 05:34:05;;;;;;;2.40;2.20;;;;;;;-0.96;100.00;97814.55;3894051;74;387783;-74
2021/01/31 05:39:37;;;;;;;1.00;0.90;;;;;;;-0.97;100.00;97818.95;3893789;74;383530;-74
2021/01/31 05:45:10;;;;;;;2.13;1.03;;;;;;;-0.98;100.00;97820.09;3894862;74;392983;-74
2021/01/31 05:50:43;;;;;;;1.20;0.90;;;;;;;-1.04;100.00;97820.13;3921326;74;389846;-75
2021/01/31 05:56:30;;;;;;;1.10;0.93;;;;;;;-1.01;100.00;97828.30;3932771;74;396079;-74
2021/01/31 06:02:05;;;;;;;1.03;0.93;;;;;;;-0.99;100.00;97832.02;3933203;74;383565;-75
2021/01/31 06:07:26;;;;;;;2.83;1.37;;;;;;;-1.03;100.00;97841.94;3931722;74;396088;-75
2021/01/31 06:12:50;;;;;;;0.90;0.73;;;;;;;-1.05;100.00;97840.95;3933301;74;383537;-75
2021/01/31 06:18:17;;;;;;;2.90;2.70;;;;;;;-1.06;100.00;97834.57;3932177;74;393982;-75
2021/01/31 06:23:44;;;;;;;1.10;0.80;;;;;;;-1.04;100.00;97838.47;3935046;74;391903;-74
2021/01/31 06:29:11;;;;;;;4.70;2.07;;;;;;;-1.04;100.00;97858.71;3932052;74;391899;-75
2021/01/31 06:34:32;;;;;;;5.10;4.80;;;;;;;-1.07;100.00;97866.73;3933172;74;396351;-75
2021/01/31 06:40:11;;;;;;;1.43;1.33;;;;;;;-1.04;100.00;97866.00;3933037;74;391883;-75
2021/01/31 06:45:50;;;;;;;6.10;1.43;;;;;;;-1.07;100.00;97870.20;3934516;74;389930;-75
2021/01/31 06:51:37;;;;;;;2.83;2.50;;;;;;;-1.12;100.00;97873.19;3905137;74;396121;-75
2021/01/31 06:57:10;;;;;;;0.90;0.80;;;;;;;-1.09;100.00;97883.25;3895897;74;383600;-75
2021/01/31 07:02:43;;;;;;;2.60;2.17;;;;;;;-1.09;100.00;97885.18;3893303;75;391855;-74
2021/01/31 07:08:19;;;;;;;1.17;0.87;;;;;;;-1.12;100.00;97891.27;3895355;74;392902;-75
2021/01/31 07:13:52;;;;;;;2.80;1.57;;;;;;;-1.15;100.00;97904.13;3894732;74;395323;-75
2021/01/31 07:19:20;;;;;;;1.00;0.90;;;;;;;-1.18;100.00;97901.58;3893404;75;383806;-75
2021/01/31 07:25:05;;;;;;;1.77;0.93;;;;;;;-1.23;100.00;97912.63;3892663;75;389832;-76
2021/01/31 07:30:38;;;;;;;1.73;1.63;;;;;;;-1.17;100.00;97918.53;3895045;75;396416;-75
2021/01/31 07:36:20;;;;;;;1.80;1.70;;;;;;;-1.11;100.00;97923.31;3895026;74;383606;-75
2021/01/31 07:41:44;;;;;;;0.90;0.60;;;;;;;-1.12;100.00;97909.61;3896187;75;383569;-75
2021/01/31 07:47:06;;;;;;;10.63;2.27;;;;;;;-1.08;100.00;97909.68;3892979;75;396123;-75
2021/01/31 07:52:52;;;;;;;2.20;2.00;;;;;;;-1.07;100.00;97901.81;3926789;74;383565;-75
2021/01/31 07:58:28;;;;;;;2.30;2.10;;;;;;;-1.02;100.00;97914.46;3931855;74;396099;-75
2021/01/31 08:03:49;;;;;;;2.50;1.47;;;;;;;-0.87;100.00;97911.48;3934404;74;396367;-75
2021/01/31 08:09:29;;;;;;;0.90;0.60;;;;;;;-0.81;100.00;97911.63;3933582;74;383568;-75
2021/01/31 08:15:11;;;;;;;2.43;2.27;;;;;;;-0.76;100.00;97918.13;3934796;74;389808;-75
2021/01/31 08:20:41;;;;;;;1.33;1.23;;;;;;;-0.66;100.00;97932.42;3932521;74;393152;-75
2021/01/31 08:26:06;;;;;;;1.57;1.10;;;;;;;-0.62;100.00;97929.79;3934518;74;392155;-75
2021/01/31 08:31:27;;;;;;;2.47;2.27;;;;;;;-0.51;100.00;97934.82;3932187;74;396120;-75
2021/01/31 08:36:48;;;;;;;1.57;1.17;;;;;;;-0.42;100.00;97940.25;3932326;74;392139;-76
2021/01/31 08:42:11;;;;;;;1.60;1.50;;;;;;;-0.23;100.00;97946.98;3931688;74;396080;-75
2021/01/31 08:47:45;;;;;;;2.63;1.97;;;;;;;-0.12;100.00;97935.05;3934513;74;391891;-75
2021/01/31 08:53:06;;;;;;;1.47;1.37;;;;;;;0.07;100.00;97935.80;3932397;74;396168;-75
2021/01/31 08:58:28;;;;;;;3.30;1.97;;;;;;;0.11;100.00;97933.92;3931990;74;396104;-75
2021/01/31 09:03:49;;;;;;;9.53;1.93;;;;;;;0.25;100.00;97932.27;3932449;74;391899;-76
2021/01/31 09:09:22;;;;;;;2.83;1.70;;;;;;;0.37;100.00;97928.59;3932806;74;388011;-75
2021/01/31 09:14:45;;;;;;;0.90;0.70;;;;;;;0.52;100.00;97920.37;3933136;74;383821;-75
2021/01/31 09:20:15;;;;;;;0.80;0.50;;;;;;;0.71;100.00;97919.51;3933041;74;383663;-75
2021/01/31 09:25:39;;;;;;;6.23;1.70;;;;;;;0.73;100.00;97926.11;3934571;74;393986;-75
2021/01/31 09:31:03;;;;;;;5.90;4.00;;;;;;;0.73;100.00;97922.64;3932599;74;395059;-75
2021/01/31 09:36:27;;;;;;;1.83;1.73;;;;;;;0.90;100.00;97906.66;3932778;74;383801;-75
2021/01/31 09:41:50;;;;;;;3.97;1.37;;;;;;;0.91;100.00;97902.22;3932912;74;383828;-75
2021/01/31 09:47:11;;;;;;;4.43;2.97;;;;;;;0.74;100.00;97899.81;3934265;74;394233;-76
2021/01/31 09:52:33;;;;;;;3.73;1.70;;;;;;;0.82;100.00;97900.34;3906807;74;396088;-75
2021/01/31 09:57:54;;;;;;;4.30;1.80;;;;;;;1.24;100.00;97902.30;3892707;75;396133;-77
2021/01/31 10:03:27;;;;;;;1.50;1.40;;;;;;;2.11;100.00;97905.26;3893296;75;391875;-77
2021/01/31 10:08:52;;;;;;;6.07;3.87;;;;;;;2.84;95.60;97913.48;3892568;75;396129;-77
2021/01/31 10:14:16;;;;;;;1.50;1.40;;;;;;;3.10;94.14;97918.71;3892316;75;396526;-77
2021/01/31 10:19:37;;;;;;;7.60;1.43;;;;;;;2.68;96.03;97918.98;3895365;74;389773;-77
2021/01/31 10:24:58;;;;;;;3.03;2.37;;;;;;;4.01;89.56;97916.64;3880473;74;396102;-77
2021/01/31 10:30:29;;;;;;;1.07;0.97;;;;;;;5.05;83.55;97911.86;3892925;74;387733;-78
2021/01/31 10:35:50;;;;;;;3.63;2.10;;;;;;;5.01;81.31;97902.12;3892153;75;394253;-77
2021/01/31 10:41:11;;;;;;;3.30;2.23;;;;;;;5.37;80.79;97906.36;3892155;75;396352;-77
2021/01/31 10:46:34;;;;;;;4.83;2.93;;;;;;;5.30;77.85;97896.84;3892576;75;394227;-77
2021/01/31 10:51:55;;;;;;;3.70;1.83;;;;;;;5.55;78.29;97897.75;3892169;74;392934;-77
2021/01/31 10:57:17;;;;;;;1.77;1.67;;;;;;;5.93;75.99;97894.70;3892262;75;396081;-77
2021/01/31 11:02:38;;;;;;;8.40;4.13;;;;;;;4.64;80.68;97890.11;3892825;74;396129;-78
2021/01/31 11:07:59;;;;;;;4.23;2.07;;;;;;;4.24;84.74;97889.87;3892724;75;387777;-78
2021/01/31 11:13:21;;;;;;;4.00;1.67;;;;;;;3.76;86.39;97897.89;3892646;75;396034;-77
2021/01/31 11:18:42;;;;;;;2.80;1.33;;;;;;;3.82;89.97;97894.99;3892886;75;392183;-78
2021/01/31 11:24:05;;;;;;;3.63;1.60;;;;;;;3.81;88.92;97896.16;3892621;75;395304;-78
2021/01/31 11:29:25;;;;;;;2.67;2.47;;;;;;;4.17;90.43;97890.42;3892770;75;396113;-78
2021/01/31 11:34:47;;;;;;;5.03;3.23;;;;;;;3.89;91.05;97882.20;3892564;75;396376;-77
2021/01/31 11:40:09;;;;;;;2.80;2.30;;;;;;;3.47;91.54;97882.05;3892382;74;396042;-77
2021/01/31 11:45:30;;;;;;;2.83;2.63;;;;;;;3.23;93.69;97877.86;3892890;75;387798;-77
2021/01/31 11:50:52;;;;;;;2.50;2.30;;;;;;;3.30;94.62;97883.33;3895598;74;396073;-77
2021/01/31 11:56:13;;;;;;;0.93;0.83;;;;;;;3.35;96.40;97882.36;3933428;74;385716;-76
2021/01/31 12:01:37;;;;;;;1.70;1.60;;;;;;;3.30;97.50;97876.53;3932402;74;390048;-77
2021/01/31 12:06:58;;;;;;;20.13;3.07;;;;;;;3.07;99.51;97872.52;3933920;74;396340;-77
2021/01/31 12:12:20;;;;;;;14.83;2.63;;;;;;;2.92;99.42;97858.64;3932058;74;396091;-76
2021/01/31 12:17:42;;;;;;;9.20;3.03;;;;;;;2.70;100.00;97854.23;3932089;74;396089;-77
2021/01/31 12:23:03;;;;;;;5.33;3.47;;;;;;;2.88;100.00;97855.91;3932096;74;396120;-77
2021/01/31 12:28:25;;;;;;;8.33;2.40;;;;;;;2.88;100.00;97843.69;3932614;74;395282;-75
2021/01/31 12:33:46;;;;;;;1.60;1.40;;;;;;;2.86;100.00;97841.92;3932712;74;393962;-77
2021/01/31 12:39:08;;;;;;;3.33;3.13;;;;;;;2.87;100.00;97838.65;3931936;74;396072;-76
2021/01/31 12:44:28;;;;;;;1.53;1.43;;;;;;;2.70;100.00;97825.73;3932619;74;392165;-76
2021/01/31 12:49:50;;;;;;;2.03;1.60;;;;;;;2.77;100.00;97828.49;3931912;74;396078;-76
2021/01/31 12:55:13;;;;;;;2.50;2.30;;;;;;;2.70;100.00;97817.00;3898823;74;396110;-76
2021/01/31 13:00:33;;;;;;;2.73;1.80;;;;;;;2.71;100.00;97813.13;3892639;75;393974;-75
2021/01/31 13:05:55;;;;;;;2.23;2.03;;;;;;;2.56;100.00;97797.91;3892843;74;396366;-75
2021/01/31 13:11:16;;;;;;;3.97;2.50;;;;;;;2.53;100.00;97808.16;3892740;75;391906;-75
2021/01/31 13:16:37;;;;;;;2.10;1.87;;;;;;;2.48;100.00;97785.45;3892222;74;396065;-77
2021/01/31 13:21:58;;;;;;;1.07;0.97;;;;;;;2.50;100.00;97793.97;3893099;74;389816;-75
2021/01/31 13:27:19;;;;;;;3.63;3.30;;;;;;;2.41;100.00;97791.39;3892443;75;396081;-75
2021/01/31 13:32:40;;;;;;;3.43;3.23;;;;;;;2.46;100.00;97789.70;3892642;75;392936;-75
2021/01/31 13:38:01;;;;;;;21.33;5.73;;;;;;;2.55;100.00;97780.63;3892160;74;398428;-75
2021/01/31 13:43:23;;;;;;;1.53;1.43;;;;;;;2.61;100.00;97781.27;3892815;75;391915;-75
2021/01/31 13:48:44;;;;;;;3.37;3.17;;;;;;;2.56;100.00;97775.41;3892369;75;396121;-74
2021/01/31 13:54:05;;;;;;;2.30;1.10;;;;;;;2.51;100.00;97771.11;3912374;74;396108;-75
2021/01/31 13:59:26;;;;;;;3.50;1.73;;;;;;;2.46;100.00;97767.41;3931822;74;396174;-75
2021/01/31 14:04:48;;;;;;;10.60;1.50;;;;;;;2.40;100.00;97754.56;3932561;74;389768;-75
2021/01/31 14:10:10;;;;;;;5.17;2.60;;;;;;;2.37;100.00;97742.53;3931908;74;396319;-74
2021/01/31 14:15:31;;;;;;;4.33;1.97;;;;;;;2.32;100.00;97742.70;3931806;74;391950;-75
2021/01/31 14:20:52;;;;;;;1.77;1.23;;;;;;;2.25;100.00;97733.16;3932122;74;396080;-75
2021/01/31 14:26:13;;;;;;;3.13;2.83;;;;;;;2.25;100.00;97730.44;3931499;74;396125;-76
2021/01/31 14:31:36;;;;;;;1.87;1.03;;;;;;;2.25;100.00;97722.30;3931800;74;396112;-76
2021/01/31 14:36:57;;;;;;;3.47;1.37;;;;;;;2.20;100.00;97722.64;3932429;74;396087;-75
2021/01/31 14:42:19;;;;;;;2.00;1.87;;;;;;;2.21;100.00;97713.34;3932038;74;396119;-76
2021/01/31 14:47:40;;;;;;;2.90;2.07;;;;;;;2.11;100.00;97707.27;3931953;74;396362;-74
2021/01/31 14:53:01;;;;;;;3.43;2.40;;;;;;;2.07;100.00;97702.41;3926026;74;396148;-75
2021/01/31 14:58:22;;;;;;;2.20;1.70;;;;;;;2.05;100.00;97697.38;3892737;75;396378;-75
2021/01/31 15:03:43;;;;;;;3.80;1.40;;;;;;;2.04;100.00;97695.02;3892763;74;396106;-75
2021/01/31 15:09:06;;;;;;;1.77;1.60;;;;;;;1.94;100.00;97697.10;3893183;75;392960;-74
2021/01/31 15:14:26;;;;;;;2.33;1.63;;;;;;;1.95;100.00;97708.13;3892348;75;396500;-75
2021/01/31 15:19:49;;;;;;;1.60;1.50;;;;;;;1.92;100.00;97695.34;3893254;74;392176;-75
2021/01/31 15:25:11;;;;;;;4.10;3.80;;;;;;;1.88;100.00;97686.38;3892727;74;396038;-74
2021/01/31 15:30:33;;;;;;;6.80;4.27;;;;;;;1.85;100.00;97680.38;3892732;75;393985;-74
2021/01/31 15:35:54;;;;;;;1.77;1.67;;;;;;;1.76;100.00;97672.55;3892562;75;396144;-75
2021/01/31 15:41:15;;;;;;;7.93;4.10;;;;;;;1.72;100.00;97662.27;3893425;74;394245;-74
2021/01/31 15:46:36;;;;;;;3.10;2.53;;;;;;;1.69;100.00;97663.02;3892060;74;396113;-74
2021/01/31 15:51:58;;;;;;;2.67;2.47;;;;;;;1.70;100.00;97664.57;3891896;75;396332;-75
2021/01/31 15:57:19;;;;;;;2.03;1.93;;;;;;;1.71;100.00;97658.00;3892655;74;391853;-74
2021/01/31 16:02:40;;;;;;;3.10;2.90;;;;;;;1.66;100.00;97657.56;3892088;75;396474;-75
2021/01/31 16:08:01;;;;;;;5.80;3.67;;;;;;;1.60;100.00;97665.85;3892449;75;396132;-74
2021/01/31 16:13:24;;;;;;;6.00;4.50;;;;;;;1.57;100.00;97653.63;3892476;75;396073;-74
2021/01/31 16:18:49;;;;;;;4.10;2.17;;;;;;;1.49;100.00;97648.72;3892542;75;396336;-75
2021/01/31 16:24:10;;;;;;;4.40;1.17;;;;;;;1.46;100.00;97658.94;3895107;74;394206;-74
2021/01/31 16:29:31;;;;;;;4.50;1.87;;;;;;;1.45;100.00;97644.42;3892612;75;396066;-73
2021/01/31 16:34:52;;;;;;;12.30;3.07;;;;;;;1.41;100.00;97639.56;3892402;75;400196;-75
2021/01/31 16:40:15;;;;;;;2.37;2.17;;;;;;;1.45;100.00;97639.80;3892187;75;396326;-75
2021/01/31 16:45:43;;;;;;;2.37;2.10;;;;;;;1.45;100.00;97649.84;3892416;75;395288;-74
2021/01/31 16:51:01;;;;;;;3.93;1.60;;;;;;;1.39;100.00;97652.11;3894838;74;396325;-75
2021/01/31 16:56:22;;;;;;;4.70;2.20;;;;;;;1.35;100.00;97633.70;3892173;75;396124;-74
2021/01/31 17:01:43;;;;;;;3.40;1.80;;;;;;;1.31;100.00;97636.18;3892638;74;392937;-74
2021/01/31 17:07:04;;;;;;;2.10;1.97;;;;;;;1.28;100.00;97635.00;3892029;75;396080;-74
2021/01/31 17:12:26;;;;;;;4.77;2.23;;;;;;;1.30;100.00;97617.78;3892661;75;390861;-74
2021/01/31 17:17:47;;;;;;;1.93;1.17;;;;;;;1.28;100.00;97611.19;3892132;75;396299;-74
2021/01/31 17:23:08;;;;;;;8.57;1.97;;;;;;;1.23;100.00;97602.83;3861862;75;393220;-75
2021/01/31 17:28:29;;;;;;;5.93;4.10;;;;;;;1.23;100.00;97606.89;3862834;72;385651;-74
2021/01/31 17:33:50;;;;;;;4.97;2.00;;;;;;;1.24;100.00;97594.14;3866012;75;393970;-74
2021/01/31 17:39:11;;;;;;;10.37;2.60;;;;;;;1.27;100.00;97581.98;3854608;75;396091;-74
2021/01/31 17:44:33;;;;;;;4.67;1.40;;;;;;;1.19;100.00;97564.68;3858151;75;383574;-74
2021/01/31 17:49:54;;;;;;;5.57;2.93;;;;;;;1.19;100.00;97560.06;3869024;74;396131;-74
2021/01/31 17:55:18;;;;;;;1.53;1.43;;;;;;;1.15;100.00;97557.88;3870785;74;396292;-74
2021/01/31 18:00:39;;;;;;;5.00;2.53;;;;;;;1.18;100.00;97555.00;3903288;74;384153;-74
2021/01/31 18:06:00;;;;;;;2.73;2.27;;;;;;;1.14;100.00;97554.97;3900736;74;396129;-74
2021/01/31 18:11:21;;;;;;;13.23;2.97;;;;;;;1.12;100.00;97560.01;3895558;74;400255;-74
2021/01/31 18:16:43;;;;;;;6.13;4.27;;;;;;;1.09;100.00;97558.03;3900389;74;396160;-74
2021/01/31 18:22:05;;;;;;;1.90;1.70;;;;;;;1.04;100.00;97548.13;3895354;74;396040;-74
2021/01/31 18:27:26;;;;;;;4.80;1.80;;;;;;;1.05;100.00;97546.38;3897831;74;394996;-74
2021/01/31 18:32:47;;;;;;;1.60;1.30;;;;;;;1.05;100.00;97543.67;3927081;74;391898;-74
2021/01/31 18:38:10;;;;;;;1.43;1.27;;;;;;;0.96;100.00;97545.95;3934130;74;396320;-73
2021/01/31 18:43:31;;;;;;;4.43;1.80;;;;;;;0.96;100.00;97547.30;3934085;74;390814;-74
2021/01/31 18:48:54;;;;;;;7.87;2.30;;;;;;;0.93;100.00;97527.73;3934010;74;396125;-73
2021/01/31 18:54:15;;;;;;;3.30;3.07;;;;;;;0.94;100.00;97527.14;3934287;74;396353;-74
2021/01/31 18:59:37;;;;;;;2.10;1.90;;;;;;;0.88;100.00;97529.44;3933758;74;394029;-73
2021/01/31 19:04:58;;;;;;;2.40;2.03;;;;;;;0.86;100.00;97529.59;3934122;74;396046;-73
2021/01/31 19:10:23;;;;;;;2.07;1.97;;;;;;;0.83;100.00;97531.13;3933745;74;396057;-74
2021/01/31 19:15:44;;;;;;;3.00;0.93;;;;;;;0.78;100.00;97513.88;3934360;74;394052;-74
2021/01/31 19:21:05;;;;;;;3.70;3.40;;;;;;;0.79;100.00;97512.73;3933772;74;396086;-73
2021/01/31 19:26:26;;;;;;;7.17;3.33;;;;;;;0.79;100.00;97496.50;3934035;74;396138;-74
2021/01/31 19:31:48;;;;;;;2.37;2.27;;;;;;;0.75;100.00;97481.94;3934101;74;396369;-73
2021/01/31 19:37:10;;;;;;;3.70;2.43;;;;;;;0.69;100.00;97472.03;3934698;74;391944;-74
2021/01/31 19:42:31;;;;;;;5.27;2.63;;;;;;;0.65;100.00;97464.47;3934244;74;396300;-73
2021/01/31 19:47:52;;;;;;;0.90;0.80;;;;;;;0.67;100.00;97453.27;3935326;74;385608;-73
2021/01/31 19:53:14;;;;;;;2.33;2.17;;;;;;;0.69;100.00;97462.56;3934392;74;390057;-73
2021/01/31 19:58:35;;;;;;;2.67;1.80;;;;;;;0.62;100.00;97444.92;3934160;74;396040;-74
2021/01/31 20:03:57;;;;;;;7.50;4.83;;;;;;;0.57;100.00;97429.05;3934411;74;396091;-73
2021/01/31 20:09:18;;;;;;;3.17;2.43;;;;;;;0.59;100.00;97420.55;3933839;74;396092;-73
2021/01/31 20:14:40;;;;;;;2.80;2.63;;;;;;;0.59;100.00;97415.13;3933963;74;396133;-73
2021/01/31 20:20:01;;;;;;;4.43;2.03;;;;;;;0.64;100.00;97431.04;3934440;74;388727;-73
2021/01/31 20:25:22;;;;;;;1.70;1.60;;;;;;;0.65;100.00;97436.66;3934587;74;383588;-73
2021/01/31 20:30:44;;;;;;;3.00;2.80;;;;;;;0.61;100.00;97420.95;3933935;74;396061;-73
2021/01/31 20:36:05;;;;;;;5.60;2.70;;;;;;;0.60;100.00;97415.34;3933809;74;396281;-73
2021/01/31 20:41:27;;;;;;;12.07;2.43;;;;;;;0.63;100.00;97402.43;3933888;74;396361;-74
2021/01/31 20:46:48;;;;;;;2.60;2.40;;;;;;;0.58;100.00;97397.34;3934014;74;396353;-73
2021/01/31 20:52:09;;;;;;;1.70;1.60;;;;;;;0.56;100.00;97391.55;3933887;74;396289;-74
2021/01/31 20:57:31;;;;;;;1.80;1.70;;;;;;;0.57;100.00;97387.67;3934007;74;396087;-74
2021/01/31 21:02:52;;;;;;;1.40;1.30;;;;;;;0.58;100.00;97385.17;3933978;74;393938;-74
2021/01/31 21:08:15;;;;;;;2.00;1.40;;;;;;;0.60;100.00;97386.94;3934653;74;383844;-73
2021/01/31 21:13:36;;;;;;;4.30;4.00;;;;;;;0.60;100.00;97380.17;3934214;74;391891;-73
2021/01/31 21:18:58;;;;;;;4.90;1.60;;;;;;;0.64;100.00;97378.28;3934212;74;396328;-74
2021/01/31 21:24:20;;;;;;;2.30;1.60;;;;;;;0.66;100.00;97369.98;3934382;74;389785;-73
2021/01/31 21:29:41;;;;;;;1.50;1.40;;;;;;;0.65;100.00;97367.66;3934538;74;389819;-73
2021/01/31 21:35:03;;;;;;;3.80;2.30;;;;;;;0.65;100.00;97362.25;3933923;74;396356;-73
2021/01/31 21:40:27;;;;;;;2.80;2.27;;;;;;;0.62;100.00;97350.82;3934072;74;395023;-74
2021/01/31 21:45:48;;;;;;;1.00;0.90;;;;;;;0.61;100.00;97347.91;3932659;74;391910;-73
2021/01/31 21:51:09;;;;;;;10.93;2.57;;;;;;;0.63;100.00;97332.85;3934448;74;395259;-73
2021/01/31 21:56:30;;;;;;;1.97;1.73;;;;;;;0.65;100.00;97324.38;3932807;74;387994;-74
2021/01/31 22:01:51;;;;;;;2.77;2.57;;;;;;;0.60;100.00;97311.19;3894821;74;392187;-73
2021/01/31 22:07:12;;;;;;;3.93;1.90;;;;;;;0.58;100.00;97309.43;3894639;74;396286;-73
2021/01/31 22:12:34;;;;;;;3.77;3.47;;;;;;;0.57;100.00;97305.17;3894923;74;394013;-73
2021/01/31 22:17:57;;;;;;;2.70;2.50;;;;;;;0.58;100.00;97299.97;3894967;75;391946;-73
2021/01/31 22:23:18;;;;;;;4.10;2.10;;;;;;;0.66;100.00;97298.85;3894770;74;396078;-74
2021/01/31 22:28:39;;;;;;;2.20;1.33;;;;;;;0.56;100.00;97296.88;3894488;74;394027;-73
2021/01/31 22:34:01;;;;;;;5.70;2.70;;;;;;;0.51;100.00;97295.87;3894774;74;392133;-73
2021/01/31 22:39:22;;;;;;;5.50;4.13;;;;;;;0.46;100.00;97280.00;3894549;75;396037;-74
2021/01/31 22:44:43;;;;;;;10.10;3.30;;;;;;;0.48;100.00;97277.70;3894356;74;396066;-73
2021/01/31 22:50:06;;;;;;;3.83;1.70;;;;;;;0.45;100.00;97273.04;3894459;75;396152;-74
2021/01/31 22:55:28;;;;;;;1.70;1.60;;;;;;;0.43;100.00;97271.28;3895052;75;383577;-74
2021/01/31 23:00:50;;;;;;;2.37;1.83;;;;;;;0.40;100.00;97266.64;3925772;74;396154;-74
2021/01/31 23:06:12;;;;;;;2.67;2.47;;;;;;;0.43;100.00;97263.96;3933997;74;396131;-74
2021/01/31 23:11:34;;;;;;;1.60;1.50;;;;;;;0.38;100.00;97265.66;3935045;74;392312;-74
2021/01/31 23:16:56;;;;;;;3.10;2.80;;;;;;;0.39;100.00;97261.80;3934171;74;396106;-75
2021/01/31 23:22:17;;;;;;;1.37;1.27;;;;;;;0.37;100.00;97257.33;3934674;74;391852;-74
2021/01/31 23:27:38;;;;;;;6.10;3.10;;;;;;;0.34;100.00;97260.02;3934164;74;396079;-75
2021/01/31 23:33:01;;;;;;;5.93;1.40;;;;;;;0.33;100.00;97243.03;3934442;74;388797;-75
2021/01/31 23:38:23;;;;;;;1.47;1.37;;;;;;;0.33;100.00;97242.23;3934615;74;396065;-75
2021/01/31 23:43:44;;;;;;;3.30;1.67;;;;;;;0.23;100.00;97239.67;3934672;74;388975;-75
2021/01/31 23:49:05;;;;;;;3.60;3.30;;;;;;;0.25;100.00;97230.62;3934235;74;396033;-76
2021/01/31 23:54:26;;;;;;;1.47;1.37;;;;;;;0.26;100.00;97221.92;3934789;74;394003;-75
2021/01/31 23:59:48;;;;;;;7.80;1.57;;;;;;;0.20;100.00;97210.68;3934762;74;388774;-75
